Palma De Mallorca Airport

LEPA | PMI

Palma De Mallorca , Balearic-Islands , Spain

Monday, January 27th, 2020 | 02:01

Weather

LEPA 270030Z 06003KT 9999 FEW020 07/07 Q1023 NOSIG

Charts

No Charts Available

Gates

165 Available

Runways

2 Available

Events

No events for this airport


New event